createdAt,value
2023-01-12T00:01:43.158Z,2.40
2023-01-12T00:04:13.834Z,2.95
2023-01-12T00:06:41.663Z,2.40
2023-01-12T00:09:10.457Z,2.05
2023-01-12T00:11:38.967Z,2.03
2023-01-12T00:14:08.089Z,2.42
2023-01-12T00:16:37.756Z,2.22
2023-01-12T00:19:24.669Z,1.85
2023-01-12T00:21:58.998Z,1.95
2023-01-12T00:24:39.565Z,2.50
2023-01-12T00:27:08.793Z,2.22
2023-01-12T00:29:36.579Z,2.17
2023-01-12T00:32:05.287Z,2.13
2023-01-12T00:34:32.738Z,2.42
2023-01-12T00:37:04.121Z,1.90
2023-01-12T00:39:31.361Z,2.05
2023-01-12T00:45:16.742Z,2.63
2023-01-12T00:47:44.124Z,2.30
2023-01-12T00:50:11.393Z,2.60
2023-01-12T00:52:38.558Z,2.33
2023-01-12T00:55:06.001Z,1.70
2023-01-12T00:57:32.943Z,1.90
2023-01-12T01:00:00.480Z,1.80
2023-01-12T01:02:28.785Z,1.95
2023-01-12T01:04:56.553Z,2.17
2023-01-12T01:07:24.065Z,1.85
2023-01-12T01:09:51.484Z,1.90
2023-01-12T01:12:18.630Z,2.03
2023-01-12T01:14:47.676Z,1.83
2023-01-12T01:17:15.037Z,2.13
2023-01-12T01:19:43.572Z,1.80
2023-01-12T01:22:12.847Z,1.95
2023-01-12T01:24:40.508Z,1.90
2023-01-12T01:27:07.556Z,1.83
2023-01-12T01:29:34.517Z,1.83
2023-01-12T01:32:01.618Z,2.13
2023-01-12T01:34:28.608Z,2.00
2023-01-12T01:36:55.552Z,1.80
2023-01-12T01:39:22.712Z,2.30
2023-01-12T01:41:49.849Z,2.05
2023-01-12T01:44:32.254Z,2.17
2023-01-12T01:47:06.648Z,2.10
2023-01-12T01:49:49.300Z,2.13
2023-01-12T01:52:26.507Z,2.20
2023-01-12T01:54:59.385Z,2.10
2023-01-12T01:57:33.597Z,1.70
2023-01-12T02:00:01.707Z,1.38
2023-01-12T02:02:29.195Z,1.80
2023-01-12T02:04:57.610Z,2.15
2023-01-12T02:07:25.451Z,1.80
2023-01-12T02:09:52.520Z,2.65
2023-01-12T02:12:38.282Z,1.90
2023-01-12T02:15:24.166Z,1.90
2023-01-12T02:18:24.162Z,1.73
2023-01-12T02:21:36.742Z,1.98
2023-01-12T02:24:23.556Z,2.10
2023-01-12T02:27:31.140Z,1.80
2023-01-12T02:30:25.068Z,2.10
2023-01-12T02:33:32.605Z,1.65
2023-01-12T02:36:27.117Z,1.50
2023-01-12T02:39:19.163Z,1.48
2023-01-12T02:42:30.794Z,2.17
2023-01-12T02:45:03.339Z,2.33
2023-01-12T02:47:38.777Z,1.70
2023-01-12T02:50:11.456Z,2.55
2023-01-12T02:52:41.371Z,1.50
2023-01-12T02:55:09.643Z,1.83
2023-01-12T02:57:38.446Z,1.75
2023-01-12T03:00:06.816Z,1.67
2023-01-12T03:02:33.975Z,2.05
2023-01-12T03:05:00.794Z,1.85
2023-01-12T03:07:47.150Z,1.80
2023-01-12T03:10:27.839Z,2.17
2023-01-12T03:12:57.996Z,1.88
2023-01-12T03:15:27.398Z,1.95
2023-01-12T03:18:00.715Z,1.70
2023-01-12T03:20:33.148Z,1.60
2023-01-12T03:23:14.340Z,1.77
2023-01-12T03:25:44.480Z,1.70
2023-01-12T03:28:14.276Z,1.80
2023-01-12T03:31:09.259Z,1.88
2023-01-12T03:33:36.823Z,1.92
2023-01-12T03:36:18.517Z,1.58
2023-01-12T03:38:45.579Z,2.03
2023-01-12T03:41:27.478Z,2.00
2023-01-12T03:43:59.448Z,1.73
2023-01-12T03:46:39.699Z,1.70
2023-01-12T03:49:24.690Z,1.65
2023-01-12T03:51:53.399Z,1.95
2023-01-12T03:54:22.011Z,1.73
2023-01-12T03:56:50.340Z,1.70
2023-01-12T03:59:17.470Z,1.92
2023-01-12T04:01:44.595Z,2.17
2023-01-12T04:04:11.501Z,1.55
2023-01-12T04:06:38.438Z,2.28
2023-01-12T04:09:05.295Z,1.67
2023-01-12T04:11:50.819Z,1.90
2023-01-12T04:14:17.691Z,1.90
2023-01-12T04:16:44.532Z,1.90
2023-01-12T04:19:11.457Z,1.70
2023-01-12T04:21:56.937Z,1.70
2023-01-12T04:24:23.833Z,1.50
2023-01-12T04:26:50.835Z,1.40
2023-01-12T04:29:17.727Z,1.58
2023-01-12T04:31:44.621Z,1.60
2023-01-12T04:34:11.625Z,1.95
2023-01-12T04:36:39.638Z,1.55
2023-01-12T04:39:07.517Z,1.38
2023-01-12T04:41:34.348Z,1.58
2023-01-12T04:44:01.282Z,1.70
2023-01-12T04:46:28.179Z,1.65
2023-01-12T04:48:54.970Z,1.85
2023-01-12T04:51:21.884Z,1.58
2023-01-12T04:53:49.203Z,1.58
2023-01-12T04:56:16.542Z,1.55
2023-01-12T04:58:43.806Z,1.58
2023-01-12T05:01:13.337Z,1.50
2023-01-12T05:03:40.359Z,2.65
2023-01-12T05:06:07.837Z,1.58
2023-01-12T05:08:54.139Z,1.48
2023-01-12T05:11:21.471Z,1.50
2023-01-12T05:13:48.432Z,1.45
2023-01-12T05:16:18.182Z,1.52
2023-01-12T05:18:46.233Z,1.63
2023-01-12T05:21:14.438Z,1.92
2023-01-12T05:23:41.859Z,1.33
2023-01-12T05:26:09.679Z,1.60
2023-01-12T05:28:37.072Z,1.80
2023-01-12T05:31:06.895Z,1.27
2023-01-12T05:33:34.459Z,1.10
2023-01-12T05:36:05.273Z,1.60
2023-01-12T05:38:32.411Z,1.73
2023-01-12T05:41:03.497Z,1.85
2023-01-12T05:43:50.049Z,1.77
2023-01-12T05:46:21.651Z,1.48
2023-01-12T05:48:49.463Z,1.83
2023-01-12T05:51:16.926Z,1.90
2023-01-12T05:53:43.802Z,1.25
2023-01-12T05:56:22.456Z,1.55
2023-01-12T05:59:00.295Z,1.55
2023-01-12T06:01:30.432Z,1.77
2023-01-12T06:03:59.863Z,1.75
2023-01-12T06:06:31.406Z,1.85
2023-01-12T06:08:59.495Z,1.30
2023-01-12T06:11:45.163Z,1.88
2023-01-12T06:14:12.429Z,1.20
2023-01-12T06:16:41.269Z,1.63
2023-01-12T06:19:09.829Z,1.40
2023-01-12T06:21:38.544Z,1.50
2023-01-12T06:24:05.808Z,2.30
2023-01-12T06:26:32.823Z,1.23
2023-01-12T06:29:00.454Z,1.42
2023-01-12T06:31:27.456Z,1.50
2023-01-12T06:33:54.420Z,2.00
2023-01-12T06:36:21.477Z,1.90
2023-01-12T06:38:48.409Z,1.92
2023-01-12T06:41:33.795Z,1.67
2023-01-12T06:44:00.629Z,1.60
2023-01-12T06:46:27.925Z,1.65
2023-01-12T06:48:56.726Z,1.80
2023-01-12T06:51:23.925Z,2.03
2023-01-12T06:53:51.088Z,1.80
2023-01-12T06:56:17.923Z,2.15
2023-01-12T06:58:45.295Z,1.70
2023-01-12T07:01:13.635Z,1.60
2023-01-12T07:03:40.794Z,1.50
2023-01-12T07:06:08.060Z,2.20
2023-01-12T07:08:35.481Z,1.92
2023-01-12T07:11:03.711Z,1.80
2023-01-12T07:13:34.043Z,1.70
2023-01-12T07:16:02.379Z,1.30
2023-01-12T07:18:30.800Z,1.60
2023-01-12T07:20:57.928Z,1.75
2023-01-12T07:23:25.091Z,1.90
2023-01-12T07:25:52.243Z,1.80
2023-01-12T07:28:19.151Z,1.10
2023-01-12T07:30:46.346Z,2.00
2023-01-12T07:33:16.660Z,1.23
2023-01-12T07:35:45.575Z,1.38
2023-01-12T07:38:12.792Z,1.20
2023-01-12T07:40:39.843Z,1.17
2023-01-12T07:43:12.136Z,1.38
2023-01-12T07:45:39.891Z,1.17
2023-01-12T07:48:08.209Z,1.20
2023-01-12T07:50:37.141Z,1.10
2023-01-12T07:53:04.826Z,1.50
2023-01-12T07:55:32.167Z,1.00
2023-01-12T07:58:03.322Z,1.02
2023-01-12T08:00:31.299Z,1.25
2023-01-12T08:03:10.435Z,1.25
2023-01-12T08:05:39.060Z,0.93
2023-01-12T08:08:07.494Z,1.00
2023-01-12T08:10:34.924Z,1.23
2023-01-12T08:13:02.006Z,0.85
2023-01-12T08:15:35.577Z,0.80
2023-01-12T08:18:13.189Z,0.95
2023-01-12T08:20:40.915Z,1.10
2023-01-12T08:23:26.968Z,0.80
2023-01-12T08:25:58.628Z,1.23
2023-01-12T08:28:33.809Z,0.80
2023-01-12T08:31:00.977Z,0.75
2023-01-12T08:33:28.656Z,0.80
2023-01-12T08:35:55.701Z,0.70
2023-01-12T08:38:23.152Z,0.60
2023-01-12T08:41:08.732Z,0.70
2023-01-12T08:43:55.644Z,0.60
2023-01-12T08:48:49.634Z,0.60
2023-01-12T08:51:16.663Z,0.73
2023-01-12T08:53:43.954Z,0.70
2023-01-12T08:56:10.899Z,0.60
2023-01-12T08:58:37.940Z,0.70
2023-01-12T09:01:10.279Z,0.60
2023-01-12T09:03:38.492Z,0.50
2023-01-12T09:06:27.600Z,0.70
2023-01-12T09:09:00.135Z,0.80
2023-01-12T09:11:29.449Z,0.77
2023-01-12T09:13:58.646Z,0.77
2023-01-12T09:16:27.478Z,0.65
2023-01-12T09:18:54.674Z,1.13
2023-01-12T09:21:24.074Z,0.65
2023-01-12T09:23:52.753Z,1.00
2023-01-12T09:26:31.500Z,0.95
2023-01-12T09:28:59.979Z,1.13
2023-01-12T09:31:28.442Z,1.20
2023-01-12T09:33:56.533Z,0.70
2023-01-12T09:36:26.235Z,1.08
2023-01-12T09:38:54.102Z,0.88
2023-01-12T09:41:52.518Z,1.00
2023-01-12T09:44:50.450Z,0.82
2023-01-12T09:47:23.472Z,0.88
2023-01-12T09:50:11.168Z,1.00
2023-01-12T09:52:38.345Z,0.90
2023-01-12T09:55:09.907Z,1.00
2023-01-12T09:58:16.059Z,0.80
2023-01-12T10:00:43.347Z,1.02
2023-01-12T10:03:24.935Z,0.80
2023-01-12T10:05:54.890Z,0.90
2023-01-12T10:08:38.341Z,0.82
2023-01-12T10:11:40.424Z,0.88
2023-01-12T10:14:26.424Z,0.70
2023-01-12T10:17:16.643Z,0.63
2023-01-12T10:20:08.017Z,0.60
2023-01-12T10:22:46.194Z,0.80
2023-01-12T10:25:36.436Z,0.55
2023-01-12T10:28:25.692Z,0.70
2023-01-12T10:30:57.222Z,0.65
2023-01-12T10:33:28.921Z,0.80
2023-01-12T10:36:14.568Z,0.57
2023-01-12T10:39:01.050Z,0.40
2023-01-12T10:41:37.858Z,0.60
2023-01-12T10:46:35.865Z,0.50
2023-01-12T10:49:16.814Z,0.80
2023-01-12T10:51:52.691Z,0.82
2023-01-12T10:54:24.153Z,0.70
2023-01-12T10:57:02.343Z,0.65
2023-01-12T10:59:34.835Z,0.68
2023-01-12T11:02:13.977Z,0.70
2023-01-12T11:04:52.570Z,0.73
2023-01-12T11:07:30.764Z,0.60
2023-01-12T11:10:26.859Z,0.80
2023-01-12T11:12:57.240Z,0.70
2023-01-12T11:15:24.364Z,0.80
2023-01-12T11:18:26.109Z,0.52
2023-01-12T11:21:06.842Z,0.57
2023-01-12T11:24:08.487Z,0.50
2023-01-12T11:26:49.005Z,0.70
2023-01-12T11:30:03.598Z,0.47
2023-01-12T11:32:59.817Z,0.60
2023-01-12T11:35:47.069Z,0.45
2023-01-12T11:38:26.395Z,0.45
2023-01-12T11:40:58.513Z,0.40
2023-01-12T11:43:50.201Z,0.47
2023-01-12T11:46:32.145Z,0.40
2023-01-12T11:49:10.043Z,0.50
2023-01-12T11:51:37.787Z,0.60
2023-01-12T11:54:07.991Z,0.30
2023-01-12T11:56:41.021Z,0.47
2023-01-12T11:59:24.496Z,0.50
2023-01-12T12:02:21.593Z,0.40
2023-01-12T12:05:14.649Z,0.57
2023-01-12T12:07:54.077Z,0.60
2023-01-12T12:10:34.879Z,0.50
2023-01-12T12:13:10.865Z,0.70
2023-01-12T12:16:03.443Z,0.50
2023-01-12T12:18:45.412Z,0.57
2023-01-12T12:21:30.564Z,0.50
2023-01-12T12:24:27.924Z,0.45
2023-01-12T12:27:49.120Z,0.60
2023-01-12T12:30:28.197Z,0.43
2023-01-12T12:33:16.266Z,0.50
2023-01-12T12:36:13.670Z,0.60
2023-01-12T12:38:52.009Z,0.65
2023-01-12T12:41:52.691Z,0.70
2023-01-12T12:44:43.941Z,0.43
2023-01-12T12:47:47.681Z,0.50
2023-01-12T12:50:21.466Z,0.55
2023-01-12T12:52:53.731Z,0.40
2023-01-12T12:55:20.985Z,0.35
2023-01-12T12:58:02.421Z,0.30
2023-01-12T13:00:42.615Z,0.50
2023-01-12T13:03:10.858Z,0.50
2023-01-12T13:05:50.962Z,0.73
2023-01-12T13:08:27.146Z,0.50
2023-01-12T13:10:58.885Z,0.63
2023-01-12T13:13:35.750Z,0.82
2023-01-12T13:16:20.950Z,0.50
2023-01-12T13:18:50.805Z,0.30
2023-01-12T13:21:26.815Z,0.38
2023-01-12T13:23:55.076Z,0.55
2023-01-12T13:26:34.815Z,0.40
2023-01-12T13:29:37.909Z,0.50
2023-01-12T13:32:23.294Z,0.40
2023-01-12T13:34:51.973Z,0.60
2023-01-12T13:37:59.617Z,0.50
2023-01-12T13:40:28.535Z,0.30
2023-01-12T13:43:16.419Z,0.38
2023-01-12T13:46:05.924Z,0.47
2023-01-12T13:48:35.555Z,0.60
2023-01-12T13:51:12.925Z,0.60
2023-01-12T13:53:39.987Z,0.40
2023-01-12T13:56:18.913Z,0.40
2023-01-12T13:58:46.611Z,0.40
2023-01-12T14:01:26.653Z,0.40
2023-01-12T14:04:05.778Z,0.50
2023-01-12T14:06:54.446Z,0.40
2023-01-12T14:09:53.655Z,0.50
2023-01-12T14:12:26.591Z,0.40
2023-01-12T14:15:14.875Z,0.40
2023-01-12T14:17:57.947Z,0.45
2023-01-12T14:20:28.096Z,0.50
2023-01-12T14:23:14.293Z,0.40
2023-01-12T14:25:42.414Z,0.40
2023-01-12T14:28:20.313Z,0.47
2023-01-12T14:30:55.226Z,0.32
2023-01-12T14:33:34.378Z,0.30
2023-01-12T14:36:07.486Z,0.43
2023-01-12T14:38:35.248Z,0.40
2023-01-12T14:41:06.024Z,0.47
2023-01-12T14:43:55.429Z,0.35
2023-01-12T14:46:33.654Z,0.40
2023-01-12T14:49:20.112Z,0.30
2023-01-12T14:51:55.752Z,0.50
2023-01-12T14:54:31.679Z,0.40
2023-01-12T14:57:07.364Z,0.30
2023-01-12T14:59:37.585Z,0.40
2023-01-12T15:02:13.666Z,0.30
2023-01-12T15:04:54.409Z,0.38
2023-01-12T15:07:22.408Z,0.40
2023-01-12T15:09:55.605Z,0.30
2023-01-12T15:12:28.598Z,0.50
2023-01-12T15:15:17.295Z,0.40
2023-01-12T15:18:04.584Z,0.30
2023-01-12T15:20:54.527Z,0.40
2023-01-12T15:23:54.098Z,0.30
2023-01-12T15:26:22.430Z,0.30
2023-01-12T15:28:49.912Z,0.30
2023-01-12T15:31:21.713Z,0.32
2023-01-12T15:33:48.844Z,0.28
2023-01-12T15:36:16.273Z,0.32
2023-01-12T15:38:43.546Z,0.32
2023-01-12T15:41:43.307Z,0.30
2023-01-12T15:44:15.409Z,0.40
2023-01-12T15:46:43.481Z,0.40
2023-01-12T15:49:13.401Z,0.40
2023-01-12T15:51:42.221Z,0.40
2023-01-12T15:54:12.692Z,0.50
2023-01-12T15:56:41.173Z,0.40
2023-01-12T15:59:08.505Z,0.52
2023-01-12T16:01:49.623Z,0.60
2023-01-12T16:04:42.006Z,0.68
2023-01-12T16:07:09.561Z,0.60
2023-01-12T16:09:36.566Z,0.40
2023-01-12T16:12:03.603Z,0.47
2023-01-12T16:14:30.630Z,0.65
2023-01-12T16:16:57.383Z,0.40
2023-01-12T16:19:24.505Z,0.50
2023-01-12T16:21:55.906Z,0.70
2023-01-12T16:24:26.536Z,0.70
2023-01-12T16:26:53.588Z,0.60
2023-01-12T16:29:22.072Z,0.60
2023-01-12T16:31:49.253Z,0.70
2023-01-12T16:34:18.271Z,0.80
2023-01-12T16:36:45.103Z,0.82
2023-01-12T16:39:12.807Z,0.75
2023-01-12T16:41:39.856Z,0.55
2023-01-12T16:44:06.779Z,1.50
2023-01-12T16:46:33.488Z,0.80
2023-01-12T16:49:05.193Z,1.40
2023-01-12T16:51:34.600Z,1.10
2023-01-12T16:54:02.833Z,1.20
2023-01-12T16:56:29.610Z,0.85
2023-01-12T16:58:57.686Z,0.80
2023-01-12T17:01:26.123Z,0.70
2023-01-12T17:03:57.652Z,0.80
2023-01-12T17:06:26.862Z,0.65
2023-01-12T17:08:53.897Z,0.50
2023-01-12T17:11:23.813Z,0.68
2023-01-12T17:13:53.261Z,0.55
2023-01-12T17:16:21.595Z,0.80
2023-01-12T17:18:50.778Z,0.80
2023-01-12T17:21:18.740Z,0.63
2023-01-12T17:23:46.711Z,0.80
2023-01-12T17:26:18.416Z,0.80
2023-01-12T17:28:46.085Z,0.88
2023-01-12T17:31:15.918Z,0.70
2023-01-12T17:33:43.286Z,0.70
2023-01-12T17:36:12.550Z,0.70
2023-01-12T17:38:40.166Z,1.00
2023-01-12T17:41:35.059Z,0.70
2023-01-12T17:44:04.303Z,0.70
2023-01-12T17:46:32.472Z,0.70
2023-01-12T17:49:05.496Z,0.60
2023-01-12T17:51:32.754Z,0.70
2023-01-12T17:54:00.851Z,0.85
2023-01-12T17:56:31.404Z,0.70
2023-01-12T17:58:58.633Z,0.80
2023-01-12T18:01:29.442Z,0.77
2023-01-12T18:03:57.703Z,0.80
2023-01-12T18:06:27.592Z,0.80
2023-01-12T18:09:02.264Z,0.60
2023-01-12T18:11:31.037Z,0.70
2023-01-12T18:13:58.699Z,0.60
2023-01-12T18:16:26.135Z,0.70
2023-01-12T18:18:53.481Z,0.68
2023-01-12T18:21:22.613Z,0.70
2023-01-12T18:23:51.469Z,0.68
2023-01-12T18:26:25.237Z,0.60
2023-01-12T18:28:53.606Z,0.60
2023-01-12T18:31:23.664Z,0.60
2023-01-12T18:33:54.002Z,0.70
2023-01-12T18:36:25.496Z,0.60
2023-01-12T18:38:53.931Z,0.60
2023-01-12T18:41:41.289Z,0.80
2023-01-12T18:44:09.299Z,0.60
2023-01-12T18:46:59.556Z,0.70
2023-01-12T18:49:29.861Z,0.80
2023-01-12T18:52:15.637Z,0.80
2023-01-12T18:54:47.751Z,0.90
2023-01-12T18:57:17.824Z,3.65
2023-01-12T18:59:49.472Z,1.00
2023-01-12T19:02:17.942Z,0.80
2023-01-12T19:04:49.749Z,1.10
2023-01-12T19:07:31.108Z,0.90
2023-01-12T19:09:58.599Z,1.00
2023-01-12T19:12:26.336Z,1.10
2023-01-12T19:15:12.071Z,0.70
2023-01-12T19:17:41.888Z,0.90
2023-01-12T19:20:14.429Z,0.80
2023-01-12T19:23:00.340Z,1.00
2023-01-12T19:25:46.706Z,0.68
2023-01-12T19:28:35.505Z,0.70
2023-01-12T19:31:10.028Z,0.98
2023-01-12T19:33:37.878Z,0.70
2023-01-12T19:36:10.321Z,0.70
2023-01-12T19:38:37.646Z,0.90
2023-01-12T19:41:33.995Z,0.90
2023-01-12T19:44:05.715Z,0.65
2023-01-12T19:46:33.458Z,0.70
2023-01-12T19:49:00.698Z,0.50
2023-01-12T19:51:27.563Z,0.50
2023-01-12T19:53:54.484Z,0.80
2023-01-12T19:56:21.386Z,0.80
2023-01-12T19:58:48.584Z,0.75
2023-01-12T20:01:23.191Z,0.73
2023-01-12T20:03:50.802Z,0.90
2023-01-12T20:06:18.030Z,0.90
2023-01-12T20:08:45.161Z,1.00
2023-01-12T20:11:12.180Z,1.05
2023-01-12T20:13:39.055Z,0.80
2023-01-12T20:16:10.871Z,0.80
2023-01-12T20:18:38.263Z,0.93
2023-01-12T20:21:09.367Z,0.77
2023-01-12T20:23:36.339Z,0.60
2023-01-12T20:26:11.388Z,0.80
2023-01-12T20:28:39.240Z,0.60
2023-01-12T20:31:10.708Z,0.60
2023-01-12T20:33:37.776Z,0.80
2023-01-12T20:36:05.101Z,0.70
2023-01-12T20:38:31.949Z,0.60
2023-01-12T20:40:58.861Z,1.00
2023-01-12T20:43:25.882Z,0.88
2023-01-12T20:45:52.795Z,0.80
2023-01-12T20:48:19.661Z,0.80
2023-01-12T20:50:47.061Z,0.80
2023-01-12T20:53:15.567Z,0.80
2023-01-12T20:55:52.151Z,0.90
2023-01-12T20:58:19.963Z,0.90
2023-01-12T21:13:07.252Z,1.05
2023-01-12T21:15:34.376Z,1.10
2023-01-12T21:18:01.186Z,1.30
2023-01-12T21:20:28.186Z,1.40
2023-01-12T21:22:55.074Z,1.00
2023-01-12T21:25:26.103Z,1.20
2023-01-12T21:27:53.042Z,1.15
2023-01-12T21:30:20.259Z,1.10
2023-01-12T21:32:48.724Z,1.20
2023-01-12T21:35:15.741Z,1.00
2023-01-12T21:37:42.629Z,1.00
2023-01-12T21:40:10.580Z,1.10
2023-01-12T21:42:55.823Z,1.00
2023-01-12T21:45:23.804Z,1.30
2023-01-12T21:47:50.707Z,1.20
2023-01-12T21:50:17.589Z,1.05
2023-01-12T21:52:45.059Z,1.17
2023-01-12T21:55:13.628Z,1.10
2023-01-12T21:57:41.795Z,1.00
2023-01-12T22:00:09.372Z,0.90
2023-01-12T22:02:36.348Z,1.02
2023-01-12T22:05:03.392Z,0.95
2023-01-12T22:07:30.315Z,0.93
2023-01-12T22:10:17.307Z,0.90
2023-01-12T22:15:12.152Z,0.80
2023-01-12T22:17:39.533Z,0.82
2023-01-12T22:20:07.129Z,0.80
2023-01-12T22:22:33.991Z,0.93
2023-01-12T22:25:00.851Z,0.85
2023-01-12T22:27:27.696Z,0.68
2023-01-12T22:29:55.536Z,0.70
2023-01-12T22:32:22.469Z,0.82
2023-01-12T22:34:49.188Z,0.60
2023-01-12T22:37:15.988Z,0.80
2023-01-12T22:39:42.938Z,0.70
2023-01-12T22:42:10.001Z,0.60
2023-01-12T22:44:36.834Z,0.50
2023-01-12T22:47:03.777Z,0.50
2023-01-12T22:49:30.656Z,0.50
2023-01-12T22:51:57.458Z,0.80
2023-01-12T22:54:24.357Z,0.60
2023-01-12T22:56:51.175Z,0.60
2023-01-12T22:59:18.179Z,0.60
2023-01-12T23:01:45.050Z,0.60
2023-01-12T23:04:13.396Z,0.70
2023-01-12T23:06:41.347Z,0.80
2023-01-12T23:09:08.168Z,0.80
2023-01-12T23:11:35.041Z,0.85
2023-01-12T23:30:12.571Z,0.82
2023-01-12T23:32:39.548Z,1.00
2023-01-12T23:35:06.751Z,1.23
2023-01-12T23:37:33.513Z,0.77
2023-01-12T23:40:00.357Z,0.90
2023-01-12T23:42:27.532Z,0.70
2023-01-12T23:44:54.382Z,0.90
2023-01-12T23:47:21.228Z,0.85
2023-01-12T23:49:48.124Z,0.80
2023-01-12T23:52:17.202Z,0.80
2023-01-12T23:54:44.045Z,1.25
2023-01-12T23:57:11.019Z,0.80
2023-01-12T23:59:39.121Z,1.00
